Just Believe — WDE6179 — position and weather

sailwx.info

Track history (hours):
 
Tides and Currents Weather Stations Pressure Air Temp Water Temp Dewpoint Dewpoint Depression Visibility Wind Speed Wind Dir Waves Ship Positions

Just Believe

Owner: Just Believe LLC, Austin, TX. More information available from US FCC via Universal Licensing System and Coast Guard Vessel Documentation Center.

Last reported at 2015-Jun-19 07:33 UTC. Time now 2015-Jul-07 21:59 UTC.
Position N 35°50' W 075°40'.
Warning: this ship's position is 18 days out of date.

Length 18 m; draft 2 m.

Type: Pleasure craft. MMSI: 367376980.

Date/timePositionNaut miles runAvg speedWind from/ knotsBaromVisibWave heightAir tempDewpointWater temp
2015-Jun-19 07:33N 35°50' W 075°40'66 3.4
2015-Jun-18 12:04N 35°03' W 076°36'5 7.4
2015-Jun-18 11:19N 34°59' W 076°41'3 3.3
2015-Jun-18 10:31N 34°57' W 076°40'0 0.0
2015-Jun-18 09:33N 34°57' W 076°40'0 0.0
2015-Jun-18 08:33N 34°57' W 076°40'0 0.0
2015-Jun-18 07:33N 34°57' W 076°40'0 0.0
2015-Jun-18 06:33N 34°57' W 076°40'0 0.0
2015-Jun-18 05:33N 34°57' W 076°40'0 0.0
2015-Jun-18 04:33N 34°57' W 076°40'0 0.0
2015-Jun-18 03:33N 34°57' W 076°40'0 0.0
2015-Jun-18 02:33N 34°57' W 076°40'0 0.0
2015-Jun-18 01:33N 34°57' W 076°40'0 0.0
2015-Jun-18 00:33N 34°57' W 076°40'0 0.0
2015-Jun-17 23:33N 34°57' W 076°40'3 2.7
2015-Jun-17 22:33N 34°54' W 076°40'5 5.1
2015-Jun-17 21:33N 34°49' W 076°41'6 5.5
2015-Jun-17 20:33N 34°44' W 076°42'2 1.5
2015-Jun-17 19:33N 34°42' W 076°41'0 0.0
2015-Jun-17 18:33N 34°42' W 076°41'0 0.0
2015-Jun-17 17:33N 34°42' W 076°41'0 0.0
2015-Jun-17 16:33N 34°42' W 076°41'0 0.0
2015-Jun-17 15:33N 34°42' W 076°41'0 0.0
2015-Jun-17 14:33N 34°42' W 076°41'0 0.0
2015-Jun-17 13:33N 34°42' W 076°41'0 0.0
2015-Jun-17 12:33N 34°42' W 076°41'0 0.0
2015-Jun-17 11:33N 34°42' W 076°41'0 0.0
2015-Jun-17 10:33N 34°42' W 076°41'0 0.0
2015-Jun-17 09:33N 34°42' W 076°41'0 0.0
2015-Jun-17 08:33N 34°42' W 076°41'0 0.0
2015-Jun-17 07:33N 34°42' W 076°41'0 0.2
2015-Jun-17 06:33N 34°42' W 076°41'6 5.7
2015-Jun-17 05:33N 34°37' W 076°41'8 7.6
2015-Jun-17 04:33N 34°30' W 076°46'8 7.8
2015-Jun-17 03:33N 34°24' W 076°51'8 8.0
2015-Jun-17 02:33N 34°17' W 076°57'8 8.1
2015-Jun-17 01:33N 34°11' W 077°03'7 7.2
2015-Jun-17 00:33N 34°05' W 077°08'7 6.7
2015-Jun-16 23:33N 33°59' W 077°13'8 7.8
2015-Jun-16 22:33N 33°53' W 077°18'90 7.4
2015-Jun-16 10:21N 32°40' W 078°21'20 7.2
2015-Jun-16 07:31N 32°24' W 078°35'8 8.1
2015-Jun-16 06:33N 32°17' W 078°41'26 8.0
2015-Jun-16 03:20N 31°56' W 078°58'1411.5
2015-Jun-16 02:07N 31°45' W 079°08'1910.9
2015-Jun-16 00:22N 31°28' W 079°19'  
2015-Jun-13 11:24N 26°50' W 081°04'27 1.5
2015-Jun-12 17:33N 26°43' W 081°33'6 5.8
2015-Jun-12 16:33N 26°43' W 081°40'6 5.6
2015-Jun-12 15:33N 26°43' W 081°46'6 6.5
2015-Jun-12 14:33N 26°39' W 081°52'1 0.6
2015-Jun-12 13:33N 26°39' W 081°52'3 3.5
2015-Jun-12 12:33N 26°36' W 081°54'6 6.3
2015-Jun-12 11:33N 26°32' W 081°60'0 0.1
2015-Jun-12 10:31N 26°32' W 081°60'0 0.0
2015-Jun-12 09:31N 26°32' W 081°60'0 0.0
2015-Jun-12 08:31N 26°32' W 081°60'0 0.0
2015-Jun-12 07:31N 26°32' W 081°60'0 0.0
2015-Jun-12 06:31N 26°32' W 081°60'0 0.0
2015-Jun-12 05:31N 26°32' W 081°60'0 0.0
2015-Jun-12 04:31N 26°32' W 081°60'0 0.0
2015-Jun-12 03:31N 26°32' W 081°60'0 0.0
2015-Jun-12 02:31N 26°32' W 081°60'0 0.0
2015-Jun-12 01:31N 26°32' W 081°60'0 0.0
2015-Jun-12 00:31N 26°32' W 081°60'0 0.0
2015-Jun-11 23:31N 26°32' W 081°60'0 0.0
2015-Jun-11 22:31N 26°32' W 081°60'0 0.0
2015-Jun-11 21:31N 26°32' W 081°60'0 0.0
2015-Jun-11 20:31N 26°32' W 081°60'0 0.0
2015-Jun-11 19:31N 26°32' W 081°60'0 0.0
2015-Jun-11 18:31N 26°32' W 081°60'0 0.0
2015-Jun-11 17:31N 26°32' W 081°60'0 0.0
2015-Jun-11 16:31N 26°32' W 081°60'0 0.0
2015-Jun-11 15:28N 26°32' W 081°60'0 0.0
2015-Jun-11 14:31N 26°32' W 081°60'0 0.0
2015-Jun-11 13:31N 26°32' W 081°60'0 0.0
2015-Jun-11 12:31N 26°32' W 081°60'0 0.0
2015-Jun-11 11:31N 26°32' W 081°60'0 0.0
2015-Jun-11 10:31N 26°32' W 081°60'0 0.0
2015-Jun-11 09:31N 26°32' W 081°60'0 0.0
2015-Jun-11 08:31N 26°32' W 081°60'0 0.0
2015-Jun-11 07:31N 26°32' W 081°60'0 0.0
2015-Jun-11 06:31N 26°32' W 081°60'0 0.0
2015-Jun-11 05:28N 26°32' W 081°60'0 0.0
2015-Jun-11 04:31N 26°32' W 081°60'0 0.0
2015-Jun-11 03:31N 26°32' W 081°60'0 0.0
2015-Jun-11 02:31N 26°32' W 081°60'0 0.0
2015-Jun-11 01:31N 26°32' W 081°60'0 0.0
2015-Jun-11 00:31N 26°32' W 081°60'0 0.0
2015-Jun-10 23:31N 26°32' W 081°60'0 0.0
2015-Jun-10 22:31N 26°32' W 081°60'0 0.0
2015-Jun-10 21:31N 26°32' W 081°60'0 0.0
2015-Jun-10 20:31N 26°32' W 081°60'0 0.0
2015-Jun-10 19:31N 26°32' W 081°60'0 0.0
2015-Jun-10 18:31N 26°32' W 081°60'0 0.0
2015-Jun-10 17:31N 26°32' W 081°60'0 0.0
2015-Jun-10 16:31N 26°32' W 081°60'0 0.0
2015-Jun-10 15:31N 26°32' W 081°60'0 0.0
2015-Jun-10 14:31N 26°32' W 081°60'0 0.0
2015-Jun-10 13:31N 26°32' W 081°60'0 0.0
2015-Jun-10 12:31N 26°32' W 081°60'0 0.0
2015-Jun-10 11:31N 26°32' W 081°60'0 0.0
2015-Jun-10 10:28N 26°32' W 081°60'0 0.0
2015-Jun-10 09:31N 26°32' W 081°60'0 0.0
2015-Jun-10 08:31N 26°32' W 081°60'0 0.0
2015-Jun-10 07:31N 26°32' W 081°60'0 0.0
2015-Jun-10 06:31N 26°32' W 081°60'0 0.0
2015-Jun-10 05:31N 26°32' W 081°60'0 0.0
2015-Jun-10 04:31N 26°32' W 081°60'0 0.0
2015-Jun-10 03:31N 26°32' W 081°60'0 0.0
2015-Jun-10 02:31N 26°32' W 081°60'0 0.0
2015-Jun-10 01:31N 26°32' W 081°60'0 0.0
2015-Jun-10 00:31N 26°32' W 081°60'0 0.0
2015-Jun-09 23:31N 26°32' W 081°60'0 0.0
2015-Jun-09 22:31N 26°32' W 081°60'0 0.0
2015-Jun-09 21:31N 26°32' W 081°60'0 0.0
2015-Jun-09 20:31N 26°32' W 081°60'0 0.0
2015-Jun-09 19:31N 26°32' W 081°60'0 0.0
2015-Jun-09 18:31N 26°32' W 081°60'0 0.0
2015-Jun-09 17:31N 26°32' W 081°60'0 0.0
2015-Jun-09 16:31N 26°32' W 081°60'0 0.0
2015-Jun-09 15:31N 26°32' W 081°60'0 0.0
2015-Jun-09 14:28N 26°32' W 081°60'0 0.0
2015-Jun-09 13:31N 26°32' W 081°60'0 0.0
2015-Jun-09 12:31N 26°32' W 081°60'0 0.0
2015-Jun-09 11:31N 26°32' W 081°60'0 0.0
2015-Jun-09 10:31N 26°32' W 081°60'0 0.0
2015-Jun-09 09:31N 26°32' W 081°60'0 0.0
2015-Jun-09 08:31N 26°32' W 081°60'  
Track history (hours):
 
Tides and Currents Weather Stations Pressure Air Temp Water Temp Dewpoint Dewpoint Depression Visibility Wind Speed Wind Dir Waves Ship Positions

Just Believe

Owner: Just Believe LLC, Austin, TX. More information available from US FCC via Universal Licensing System and Coast Guard Vessel Documentation Center.

Last reported at 2015-Jun-19 07:33 UTC. Time now 2015-Jul-07 21:59 UTC.
Position N 35°50' W 075°40'.
Warning: this ship's position is 18 days out of date.

Length 18 m; draft 2 m.

Type: Pleasure craft. MMSI: 367376980.

Date/timePositionNaut miles runAvg speedWind from/ knotsBaromVisibWave heightAir tempDewpointWater temp
2015-Jun-19 07:33N 35°50' W 075°40'66 3.4
2015-Jun-18 12:04N 35°03' W 076°36'5 7.4
2015-Jun-18 11:19N 34°59' W 076°41'3 3.3
2015-Jun-18 10:31N 34°57' W 076°40'0 0.0
2015-Jun-18 09:33N 34°57' W 076°40'0 0.0
2015-Jun-18 08:33N 34°57' W 076°40'0 0.0
2015-Jun-18 07:33N 34°57' W 076°40'0 0.0
2015-Jun-18 06:33N 34°57' W 076°40'0 0.0
2015-Jun-18 05:33N 34°57' W 076°40'0 0.0
2015-Jun-18 04:33N 34°57' W 076°40'0 0.0
2015-Jun-18 03:33N 34°57' W 076°40'0 0.0
2015-Jun-18 02:33N 34°57' W 076°40'0 0.0
2015-Jun-18 01:33N 34°57' W 076°40'0 0.0
2015-Jun-18 00:33N 34°57' W 076°40'0 0.0
2015-Jun-17 23:33N 34°57' W 076°40'3 2.7
2015-Jun-17 22:33N 34°54' W 076°40'5 5.1
2015-Jun-17 21:33N 34°49' W 076°41'6 5.5
2015-Jun-17 20:33N 34°44' W 076°42'2 1.5
2015-Jun-17 19:33N 34°42' W 076°41'0 0.0
2015-Jun-17 18:33N 34°42' W 076°41'0 0.0
2015-Jun-17 17:33N 34°42' W 076°41'0 0.0
2015-Jun-17 16:33N 34°42' W 076°41'0 0.0
2015-Jun-17 15:33N 34°42' W 076°41'0 0.0
2015-Jun-17 14:33N 34°42' W 076°41'0 0.0
2015-Jun-17 13:33N 34°42' W 076°41'0 0.0
2015-Jun-17 12:33N 34°42' W 076°41'0 0.0
2015-Jun-17 11:33N 34°42' W 076°41'0 0.0
2015-Jun-17 10:33N 34°42' W 076°41'0 0.0
2015-Jun-17 09:33N 34°42' W 076°41'0 0.0
2015-Jun-17 08:33N 34°42' W 076°41'0 0.0
2015-Jun-17 07:33N 34°42' W 076°41'0 0.2
2015-Jun-17 06:33N 34°42' W 076°41'6 5.7
2015-Jun-17 05:33N 34°37' W 076°41'8 7.6
2015-Jun-17 04:33N 34°30' W 076°46'8 7.8
2015-Jun-17 03:33N 34°24' W 076°51'8 8.0
2015-Jun-17 02:33N 34°17' W 076°57'8 8.1
2015-Jun-17 01:33N 34°11' W 077°03'7 7.2
2015-Jun-17 00:33N 34°05' W 077°08'7 6.7
2015-Jun-16 23:33N 33°59' W 077°13'8 7.8
2015-Jun-16 22:33N 33°53' W 077°18'90 7.4
2015-Jun-16 10:21N 32°40' W 078°21'20 7.2
2015-Jun-16 07:31N 32°24' W 078°35'8 8.1
2015-Jun-16 06:33N 32°17' W 078°41'26 8.0
2015-Jun-16 03:20N 31°56' W 078°58'1411.5
2015-Jun-16 02:07N 31°45' W 079°08'1910.9
2015-Jun-16 00:22N 31°28' W 079°19'  
2015-Jun-13 11:24N 26°50' W 081°04'27 1.5
2015-Jun-12 17:33N 26°43' W 081°33'6 5.8
2015-Jun-12 16:33N 26°43' W 081°40'6 5.6
2015-Jun-12 15:33N 26°43' W 081°46'6 6.5
2015-Jun-12 14:33N 26°39' W 081°52'1 0.6
2015-Jun-12 13:33N 26°39' W 081°52'3 3.5
2015-Jun-12 12:33N 26°36' W 081°54'6 6.3
2015-Jun-12 11:33N 26°32' W 081°60'0 0.1
2015-Jun-12 10:31N 26°32' W 081°60'0 0.0
2015-Jun-12 09:31N 26°32' W 081°60'0 0.0
2015-Jun-12 08:31N 26°32' W 081°60'0 0.0
2015-Jun-12 07:31N 26°32' W 081°60'0 0.0
2015-Jun-12 06:31N 26°32' W 081°60'0 0.0
2015-Jun-12 05:31N 26°32' W 081°60'0 0.0
2015-Jun-12 04:31N 26°32' W 081°60'0 0.0
2015-Jun-12 03:31N 26°32' W 081°60'0 0.0
2015-Jun-12 02:31N 26°32' W 081°60'0 0.0
2015-Jun-12 01:31N 26°32' W 081°60'0 0.0
2015-Jun-12 00:31N 26°32' W 081°60'0 0.0
2015-Jun-11 23:31N 26°32' W 081°60'0 0.0
2015-Jun-11 22:31N 26°32' W 081°60'0 0.0
2015-Jun-11 21:31N 26°32' W 081°60'0 0.0
2015-Jun-11 20:31N 26°32' W 081°60'0 0.0
2015-Jun-11 19:31N 26°32' W 081°60'0 0.0
2015-Jun-11 18:31N 26°32' W 081°60'0 0.0
2015-Jun-11 17:31N 26°32' W 081°60'0 0.0
2015-Jun-11 16:31N 26°32' W 081°60'0 0.0
2015-Jun-11 15:28N 26°32' W 081°60'0 0.0
2015-Jun-11 14:31N 26°32' W 081°60'0 0.0
2015-Jun-11 13:31N 26°32' W 081°60'0 0.0
2015-Jun-11 12:31N 26°32' W 081°60'0 0.0
2015-Jun-11 11:31N 26°32' W 081°60'0 0.0
2015-Jun-11 10:31N 26°32' W 081°60'0 0.0
2015-Jun-11 09:31N 26°32' W 081°60'0 0.0
2015-Jun-11 08:31N 26°32' W 081°60'0 0.0
2015-Jun-11 07:31N 26°32' W 081°60'0 0.0
2015-Jun-11 06:31N 26°32' W 081°60'0 0.0
2015-Jun-11 05:28N 26°32' W 081°60'0 0.0
2015-Jun-11 04:31N 26°32' W 081°60'0 0.0
2015-Jun-11 03:31N 26°32' W 081°60'0 0.0
2015-Jun-11 02:31N 26°32' W 081°60'0 0.0
2015-Jun-11 01:31N 26°32' W 081°60'0 0.0
2015-Jun-11 00:31N 26°32' W 081°60'0 0.0
2015-Jun-10 23:31N 26°32' W 081°60'0 0.0
2015-Jun-10 22:31N 26°32' W 081°60'0 0.0
2015-Jun-10 21:31N 26°32' W 081°60'0 0.0
2015-Jun-10 20:31N 26°32' W 081°60'0 0.0
2015-Jun-10 19:31N 26°32' W 081°60'0 0.0
2015-Jun-10 18:31N 26°32' W 081°60'0 0.0
2015-Jun-10 17:31N 26°32' W 081°60'0 0.0
2015-Jun-10 16:31N 26°32' W 081°60'0 0.0
2015-Jun-10 15:31N 26°32' W 081°60'0 0.0
2015-Jun-10 14:31N 26°32' W 081°60'0 0.0
2015-Jun-10 13:31N 26°32' W 081°60'0 0.0
2015-Jun-10 12:31N 26°32' W 081°60'0 0.0
2015-Jun-10 11:31N 26°32' W 081°60'0 0.0
2015-Jun-10 10:28N 26°32' W 081°60'0 0.0
2015-Jun-10 09:31N 26°32' W 081°60'0 0.0
2015-Jun-10 08:31N 26°32' W 081°60'0 0.0
2015-Jun-10 07:31N 26°32' W 081°60'0 0.0
2015-Jun-10 06:31N 26°32' W 081°60'0 0.0
2015-Jun-10 05:31N 26°32' W 081°60'0 0.0
2015-Jun-10 04:31N 26°32' W 081°60'0 0.0
2015-Jun-10 03:31N 26°32' W 081°60'0 0.0
2015-Jun-10 02:31N 26°32' W 081°60'0 0.0
2015-Jun-10 01:31N 26°32' W 081°60'0 0.0
2015-Jun-10 00:31N 26°32' W 081°60'0 0.0
2015-Jun-09 23:31N 26°32' W 081°60'0 0.0
2015-Jun-09 22:31N 26°32' W 081°60'0 0.0
2015-Jun-09 21:31N 26°32' W 081°60'0 0.0
2015-Jun-09 20:31N 26°32' W 081°60'0 0.0
2015-Jun-09 19:31N 26°32' W 081°60'0 0.0
2015-Jun-09 18:31N 26°32' W 081°60'0 0.0
2015-Jun-09 17:31N 26°32' W 081°60'0 0.0
2015-Jun-09 16:31N 26°32' W 081°60'0 0.0
2015-Jun-09 15:31N 26°32' W 081°60'0 0.0
2015-Jun-09 14:28N 26°32' W 081°60'0 0.0
2015-Jun-09 13:31N 26°32' W 081°60'0 0.0
2015-Jun-09 12:31N 26°32' W 081°60'0 0.0
2015-Jun-09 11:31N 26°32' W 081°60'0 0.0
2015-Jun-09 10:31N 26°32' W 081°60'0 0.0
2015-Jun-09 09:31N 26°32' W 081°60'0 0.0
2015-Jun-09 08:31N 26°32' W 081°60'  

Dump ship's entire track history